sensor_id;sensor_type;location;lat;lon;timestamp;P1;durP1;ratioP1;P2;durP2;ratioP2
83690;SDS011;73671;43.220;0.064;2023-12-22T00:00:26;33.05;;;4.65;;
83690;SDS011;73671;43.220;0.064;2023-12-22T00:02:51;34.28;;;4.80;;
83690;SDS011;73671;43.220;0.064;2023-12-22T00:05:16;34.85;;;4.82;;
83690;SDS011;73671;43.220;0.064;2023-12-22T00:07:42;35.55;;;4.88;;
83690;SDS011;73671;43.220;0.064;2023-12-22T00:10:07;26.05;;;4.15;;
83690;SDS011;73671;43.220;0.064;2023-12-22T00:12:34;30.75;;;4.30;;
83690;SDS011;73671;43.220;0.064;2023-12-22T00:14:59;31.63;;;4.80;;
83690;SDS011;73671;43.220;0.064;2023-12-22T00:17:25;32.67;;;4.35;;
83690;SDS011;73671;43.220;0.064;2023-12-22T00:19:50;32.58;;;4.10;;
83690;SDS011;73671;43.220;0.064;2023-12-22T00:22:15;31.70;;;5.60;;
83690;SDS011;73671;43.220;0.064;2023-12-22T00:24:41;32.10;;;4.72;;
83690;SDS011;73671;43.220;0.064;2023-12-22T00:27:06;31.30;;;4.40;;
83690;SDS011;73671;43.220;0.064;2023-12-22T00:29:32;34.80;;;5.55;;
83690;SDS011;73671;43.220;0.064;2023-12-22T00:32:00;25.95;;;4.45;;
83690;SDS011;73671;43.220;0.064;2023-12-22T00:34:26;24.90;;;4.50;;
83690;SDS011;73671;43.220;0.064;2023-12-22T00:36:51;28.98;;;4.88;;
83690;SDS011;73671;43.220;0.064;2023-12-22T00:39:17;25.52;;;4.00;;
83690;SDS011;73671;43.220;0.064;2023-12-22T00:41:42;28.08;;;3.75;;
83690;SDS011;73671;43.220;0.064;2023-12-22T00:44:08;29.48;;;4.38;;
83690;SDS011;73671;43.220;0.064;2023-12-22T00:46:33;24.08;;;3.58;;
83690;SDS011;73671;43.220;0.064;2023-12-22T00:48:58;23.63;;;3.92;;
83690;SDS011;73671;43.220;0.064;2023-12-22T00:51:24;27.98;;;4.00;;
83690;SDS011;73671;43.220;0.064;2023-12-22T00:53:49;25.60;;;3.85;;
83690;SDS011;73671;43.220;0.064;2023-12-22T00:56:14;20.63;;;3.40;;
83690;SDS011;73671;43.220;0.064;2023-12-22T00:58:40;25.30;;;3.65;;
83690;SDS011;73671;43.220;0.064;2023-12-22T01:01:05;19.80;;;3.20;;
83690;SDS011;73671;43.220;0.064;2023-12-22T01:03:31;25.42;;;4.00;;
83690;SDS011;73671;43.220;0.064;2023-12-22T01:05:56;22.75;;;3.08;;
83690;SDS011;73671;43.220;0.064;2023-12-22T01:08:22;26.20;;;3.65;;
83690;SDS011;73671;43.220;0.064;2023-12-22T01:10:47;20.52;;;3.47;;
83690;SDS011;73671;43.220;0.064;2023-12-22T01:13:13;16.33;;;3.05;;
83690;SDS011;73671;43.220;0.064;2023-12-22T01:15:38;22.35;;;3.40;;
83690;SDS011;73671;43.220;0.064;2023-12-22T01:18:04;16.90;;;3.10;;
83690;SDS011;73671;43.220;0.064;2023-12-22T01:20:30;20.33;;;3.30;;
83690;SDS011;73671;43.220;0.064;2023-12-22T01:22:55;12.82;;;2.40;;
83690;SDS011;73671;43.220;0.064;2023-12-22T01:25:20;12.57;;;2.78;;
83690;SDS011;73671;43.220;0.064;2023-12-22T01:27:46;9.20;;;2.08;;
83690;SDS011;73671;43.220;0.064;2023-12-22T01:30:12;11.90;;;2.78;;
83690;SDS011;73671;43.220;0.064;2023-12-22T01:32:38;11.68;;;2.60;;
83690;SDS011;73671;43.220;0.064;2023-12-22T01:35:03;13.25;;;2.30;;
83690;SDS011;73671;43.220;0.064;2023-12-22T01:37:34;11.40;;;2.03;;
83690;SDS011;73671;43.220;0.064;2023-12-22T01:40:00;13.85;;;2.03;;
83690;SDS011;73671;43.220;0.064;2023-12-22T01:42:25;10.90;;;2.08;;
83690;SDS011;73671;43.220;0.064;2023-12-22T01:44:50;15.57;;;3.85;;
83690;SDS011;73671;43.220;0.064;2023-12-22T01:47:16;15.02;;;2.25;;
83690;SDS011;73671;43.220;0.064;2023-12-22T01:49:41;8.60;;;1.65;;
83690;SDS011;73671;43.220;0.064;2023-12-22T01:52:07;10.30;;;2.13;;
83690;SDS011;73671;43.220;0.064;2023-12-22T01:54:33;10.00;;;2.60;;
83690;SDS011;73671;43.220;0.064;2023-12-22T01:56:59;11.20;;;1.83;;
83690;SDS011;73671;43.220;0.064;2023-12-22T01:59:25;5.90;;;1.40;;
83690;SDS011;73671;43.220;0.064;2023-12-22T02:01:51;6.35;;;1.70;;
83690;SDS011;73671;43.220;0.064;2023-12-22T02:04:18;7.35;;;1.83;;
83690;SDS011;73671;43.220;0.064;2023-12-22T02:06:44;5.43;;;1.40;;
83690;SDS011;73671;43.220;0.064;2023-12-22T02:09:09;2.63;;;1.40;;
83690;SDS011;73671;43.220;0.064;2023-12-22T02:11:36;4.60;;;1.30;;
83690;SDS011;73671;43.220;0.064;2023-12-22T02:14:03;3.45;;;1.60;;
83690;SDS011;73671;43.220;0.064;2023-12-22T02:22:07;5.22;;;1.27;;
83690;SDS011;73671;43.220;0.064;2023-12-22T02:24:34;3.75;;;1.10;;
83690;SDS011;73671;43.220;0.064;2023-12-22T02:27:04;4.32;;;1.00;;
83690;SDS011;73671;43.220;0.064;2023-12-22T02:29:35;1.67;;;0.80;;
83690;SDS011;73671;43.220;0.064;2023-12-22T02:32:03;1.23;;;1.13;;
83690;SDS011;73671;43.220;0.064;2023-12-22T02:34:36;1.85;;;1.10;;
83690;SDS011;73671;43.220;0.064;2023-12-22T02:37:07;1.90;;;1.08;;
83690;SDS011;73671;43.220;0.064;2023-12-22T02:39:34;1.38;;;0.93;;
83690;SDS011;73671;43.220;0.064;2023-12-22T02:42:00;3.30;;;1.20;;
83690;SDS011;73671;43.220;0.064;2023-12-22T02:44:27;3.60;;;1.00;;
83690;SDS011;73671;43.220;0.064;2023-12-22T02:46:52;1.00;;;0.85;;
83690;SDS011;73671;43.220;0.064;2023-12-22T02:49:18;0.77;;;0.77;;
83690;SDS011;73671;43.220;0.064;2023-12-22T02:51:44;4.18;;;0.93;;
83690;SDS011;73671;43.220;0.064;2023-12-22T02:54:09;1.10;;;0.93;;
83690;SDS011;73671;43.220;0.064;2023-12-22T02:56:35;1.90;;;0.90;;
83690;SDS011;73671;43.220;0.064;2023-12-22T02:59:00;0.80;;;0.80;;
83690;SDS011;73671;43.220;0.064;2023-12-22T03:01:26;1.80;;;0.90;;
83690;SDS011;73671;43.220;0.064;2023-12-22T03:03:51;0.90;;;0.80;;
83690;SDS011;73671;43.220;0.064;2023-12-22T03:06:16;1.50;;;0.93;;
83690;SDS011;73671;43.220;0.064;2023-12-22T03:08:42;1.23;;;0.80;;
83690;SDS011;73671;43.220;0.064;2023-12-22T03:11:07;0.75;;;0.75;;
83690;SDS011;73671;43.220;0.064;2023-12-22T03:13:32;3.33;;;1.80;;
83690;SDS011;73671;43.220;0.064;2023-12-22T03:15:58;1.13;;;1.02;;
83690;SDS011;73671;43.220;0.064;2023-12-22T03:18:23;0.80;;;0.80;;
83690;SDS011;73671;43.220;0.064;2023-12-22T03:20:48;0.88;;;0.88;;
83690;SDS011;73671;43.220;0.064;2023-12-22T03:23:14;1.15;;;0.90;;
83690;SDS011;73671;43.220;0.064;2023-12-22T03:25:39;1.17;;;0.90;;
83690;SDS011;73671;43.220;0.064;2023-12-22T03:28:05;1.35;;;1.13;;
83690;SDS011;73671;43.220;0.064;2023-12-22T03:30:30;0.90;;;0.90;;
83690;SDS011;73671;43.220;0.064;2023-12-22T03:32:55;2.75;;;0.90;;
83690;SDS011;73671;43.220;0.064;2023-12-22T03:35:21;2.58;;;1.05;;
83690;SDS011;73671;43.220;0.064;2023-12-22T03:37:46;0.80;;;0.80;;
83690;SDS011;73671;43.220;0.064;2023-12-22T03:40:11;0.80;;;0.80;;
83690;SDS011;73671;43.220;0.064;2023-12-22T03:42:37;0.90;;;0.90;;
83690;SDS011;73671;43.220;0.064;2023-12-22T03:45:02;0.70;;;0.70;;
83690;SDS011;73671;43.220;0.064;2023-12-22T03:47:28;0.70;;;0.70;;
83690;SDS011;73671;43.220;0.064;2023-12-22T03:49:53;0.80;;;0.80;;
83690;SDS011;73671;43.220;0.064;2023-12-22T03:52:18;2.05;;;0.95;;
83690;SDS011;73671;43.220;0.064;2023-12-22T03:54:44;0.70;;;0.70;;
83690;SDS011;73671;43.220;0.064;2023-12-22T03:57:09;0.80;;;0.80;;
83690;SDS011;73671;43.220;0.064;2023-12-22T03:59:35;0.88;;;0.88;;
83690;SDS011;73671;43.220;0.064;2023-12-22T04:02:00;0.70;;;0.70;;
83690;SDS011;73671;43.220;0.064;2023-12-22T04:04:26;0.77;;;0.77;;
83690;SDS011;73671;43.220;0.064;2023-12-22T04:06:53;0.77;;;0.70;;
83690;SDS011;73671;43.220;0.064;2023-12-22T04:09:18;0.70;;;0.70;;
83690;SDS011;73671;43.220;0.064;2023-12-22T04:11:44;0.80;;;0.80;;
83690;SDS011;73671;43.220;0.064;2023-12-22T04:14:09;0.73;;;0.73;;
83690;SDS011;73671;43.220;0.064;2023-12-22T04:16:36;0.80;;;0.80;;
83690;SDS011;73671;43.220;0.064;2023-12-22T04:19:02;3.22;;;0.80;;
83690;SDS011;73671;43.220;0.064;2023-12-22T04:21:28;0.93;;;0.93;;
83690;SDS011;73671;43.220;0.064;2023-12-22T04:23:53;1.10;;;1.10;;
83690;SDS011;73671;43.220;0.064;2023-12-22T04:26:18;1.20;;;1.10;;
83690;SDS011;73671;43.220;0.064;2023-12-22T04:28:44;1.27;;;1.17;;
83690;SDS011;73671;43.220;0.064;2023-12-22T04:31:09;1.23;;;1.20;;
83690;SDS011;73671;43.220;0.064;2023-12-22T04:33:34;1.00;;;1.00;;
83690;SDS011;73671;43.220;0.064;2023-12-22T04:36:00;1.30;;;1.30;;
83690;SDS011;73671;43.220;0.064;2023-12-22T04:38:25;1.10;;;1.10;;
83690;SDS011;73671;43.220;0.064;2023-12-22T04:40:50;1.38;;;1.30;;
83690;SDS011;73671;43.220;0.064;2023-12-22T04:43:16;2.17;;;1.48;;
83690;SDS011;73671;43.220;0.064;2023-12-22T04:45:41;5.15;;;1.00;;
83690;SDS011;73671;43.220;0.064;2023-12-22T04:48:07;0.90;;;0.90;;
83690;SDS011;73671;43.220;0.064;2023-12-22T04:50:32;1.65;;;0.73;;
83690;SDS011;73671;43.220;0.064;2023-12-22T04:52:57;1.50;;;1.40;;
83690;SDS011;73671;43.220;0.064;2023-12-22T04:55:23;0.90;;;0.90;;
83690;SDS011;73671;43.220;0.064;2023-12-22T04:57:48;0.90;;;0.90;;
83690;SDS011;73671;43.220;0.064;2023-12-22T05:00:13;2.03;;;0.82;;
83690;SDS011;73671;43.220;0.064;2023-12-22T05:02:39;1.38;;;0.90;;
83690;SDS011;73671;43.220;0.064;2023-12-22T05:05:05;0.82;;;0.82;;
83690;SDS011;73671;43.220;0.064;2023-12-22T05:07:33;2.42;;;1.95;;
83690;SDS011;73671;43.220;0.064;2023-12-22T05:09:58;1.92;;;1.83;;
83690;SDS011;73671;43.220;0.064;2023-12-22T05:12:24;1.48;;;1.30;;
83690;SDS011;73671;43.220;0.064;2023-12-22T05:14:49;1.70;;;1.60;;
83690;SDS011;73671;43.220;0.064;2023-12-22T05:17:14;1.80;;;1.70;;
83690;SDS011;73671;43.220;0.064;2023-12-22T05:19:40;1.88;;;1.77;;
83690;SDS011;73671;43.220;0.064;2023-12-22T05:22:05;1.85;;;1.75;;
83690;SDS011;73671;43.220;0.064;2023-12-22T05:24:31;1.05;;;1.05;;
83690;SDS011;73671;43.220;0.064;2023-12-22T05:26:56;1.50;;;1.40;;
83690;SDS011;73671;43.220;0.064;2023-12-22T05:29:21;1.13;;;1.00;;
83690;SDS011;73671;43.220;0.064;2023-12-22T05:31:47;1.00;;;1.00;;
83690;SDS011;73671;43.220;0.064;2023-12-22T05:34:12;1.27;;;1.27;;
83690;SDS011;73671;43.220;0.064;2023-12-22T05:36:38;1.60;;;1.50;;
83690;SDS011;73671;43.220;0.064;2023-12-22T05:39:03;1.65;;;1.55;;
83690;SDS011;73671;43.220;0.064;2023-12-22T05:41:28;1.80;;;1.70;;
83690;SDS011;73671;43.220;0.064;2023-12-22T05:43:54;2.40;;;1.42;;
83690;SDS011;73671;43.220;0.064;2023-12-22T05:46:19;3.28;;;1.85;;
83690;SDS011;73671;43.220;0.064;2023-12-22T05:48:44;1.95;;;1.85;;
83690;SDS011;73671;43.220;0.064;2023-12-22T05:51:10;1.10;;;1.10;;
83690;SDS011;73671;43.220;0.064;2023-12-22T05:53:39;1.30;;;1.20;;
83690;SDS011;73671;43.220;0.064;2023-12-22T05:56:05;1.00;;;1.00;;
83690;SDS011;73671;43.220;0.064;2023-12-22T05:58:42;1.48;;;1.38;;
83690;SDS011;73671;43.220;0.064;2023-12-22T06:01:07;1.25;;;1.20;;
83690;SDS011;73671;43.220;0.064;2023-12-22T06:03:33;1.20;;;1.20;;
83690;SDS011;73671;43.220;0.064;2023-12-22T06:05:58;0.90;;;0.90;;
83690;SDS011;73671;43.220;0.064;2023-12-22T06:08:23;1.60;;;1.02;;
83690;SDS011;73671;43.220;0.064;2023-12-22T06:10:49;1.23;;;1.20;;
83690;SDS011;73671;43.220;0.064;2023-12-22T06:13:14;2.55;;;1.10;;
83690;SDS011;73671;43.220;0.064;2023-12-22T06:15:40;1.60;;;1.50;;
83690;SDS011;73671;43.220;0.064;2023-12-22T06:18:05;2.65;;;1.10;;
83690;SDS011;73671;43.220;0.064;2023-12-22T06:20:31;1.83;;;1.02;;
83690;SDS011;73671;43.220;0.064;2023-12-22T06:22:56;1.80;;;1.20;;
83690;SDS011;73671;43.220;0.064;2023-12-22T06:25:21;1.88;;;1.60;;
83690;SDS011;73671;43.220;0.064;2023-12-22T06:27:47;1.75;;;1.00;;
83690;SDS011;73671;43.220;0.064;2023-12-22T06:30:12;1.50;;;1.40;;
83690;SDS011;73671;43.220;0.064;2023-12-22T06:32:38;1.23;;;1.13;;
83690;SDS011;73671;43.220;0.064;2023-12-22T06:35:06;1.50;;;1.02;;
83690;SDS011;73671;43.220;0.064;2023-12-22T06:37:32;1.58;;;1.20;;
83690;SDS011;73671;43.220;0.064;2023-12-22T06:39:58;1.10;;;1.00;;
83690;SDS011;73671;43.220;0.064;2023-12-22T06:42:23;0.90;;;0.90;;
83690;SDS011;73671;43.220;0.064;2023-12-22T06:44:48;0.90;;;0.88;;
83690;SDS011;73671;43.220;0.064;2023-12-22T06:47:14;0.98;;;0.98;;
83690;SDS011;73671;43.220;0.064;2023-12-22T06:49:39;1.70;;;1.08;;
83690;SDS011;73671;43.220;0.064;2023-12-22T06:52:05;1.23;;;1.13;;
83690;SDS011;73671;43.220;0.064;2023-12-22T06:54:30;1.00;;;1.00;;
83690;SDS011;73671;43.220;0.064;2023-12-22T06:56:55;1.48;;;1.00;;
83690;SDS011;73671;43.220;0.064;2023-12-22T06:59:21;1.23;;;1.17;;
83690;SDS011;73671;43.220;0.064;2023-12-22T07:01:46;0.90;;;0.90;;
83690;SDS011;73671;43.220;0.064;2023-12-22T07:04:12;0.90;;;0.90;;
83690;SDS011;73671;43.220;0.064;2023-12-22T07:06:37;1.10;;;1.10;;
83690;SDS011;73671;43.220;0.064;2023-12-22T07:11:37;0.90;;;0.90;;
83690;SDS011;73671;43.220;0.064;2023-12-22T07:14:03;1.20;;;1.08;;
83690;SDS011;73671;43.220;0.064;2023-12-22T07:16:29;1.30;;;1.20;;
83690;SDS011;73671;43.220;0.064;2023-12-22T07:18:54;0.90;;;0.90;;
83690;SDS011;73671;43.220;0.064;2023-12-22T07:21:19;1.70;;;1.60;;
83690;SDS011;73671;43.220;0.064;2023-12-22T07:23:46;2.42;;;2.22;;
83690;SDS011;73671;43.220;0.064;2023-12-22T07:26:11;2.50;;;2.13;;
83690;SDS011;73671;43.220;0.064;2023-12-22T07:28:37;2.45;;;1.90;;
83690;SDS011;73671;43.220;0.064;2023-12-22T07:31:02;1.95;;;1.85;;
83690;SDS011;73671;43.220;0.064;2023-12-22T07:33:28;2.47;;;2.28;;
83690;SDS011;73671;43.220;0.064;2023-12-22T07:35:53;2.45;;;2.25;;
83690;SDS011;73671;43.220;0.064;2023-12-22T07:38:19;1.60;;;1.50;;
83690;SDS011;73671;43.220;0.064;2023-12-22T07:40:44;1.60;;;1.50;;
83690;SDS011;73671;43.220;0.064;2023-12-22T07:43:10;1.42;;;1.33;;
83690;SDS011;73671;43.220;0.064;2023-12-22T07:45:35;2.88;;;1.40;;
83690;SDS011;73671;43.220;0.064;2023-12-22T07:48:01;1.30;;;1.20;;
83690;SDS011;73671;43.220;0.064;2023-12-22T07:50:26;1.30;;;1.20;;
83690;SDS011;73671;43.220;0.064;2023-12-22T07:52:52;1.17;;;1.17;;
83690;SDS011;73671;43.220;0.064;2023-12-22T07:55:18;1.60;;;1.50;;
83690;SDS011;73671;43.220;0.064;2023-12-22T07:57:43;1.05;;;1.00;;
83690;SDS011;73671;43.220;0.064;2023-12-22T08:00:10;1.30;;;1.20;;
83690;SDS011;73671;43.220;0.064;2023-12-22T08:02:36;0.95;;;0.90;;
83690;SDS011;73671;43.220;0.064;2023-12-22T08:05:01;0.90;;;0.90;;
83690;SDS011;73671;43.220;0.064;2023-12-22T08:07:27;2.75;;;1.25;;
83690;SDS011;73671;43.220;0.064;2023-12-22T08:09:52;4.60;;;1.60;;
83690;SDS011;73671;43.220;0.064;2023-12-22T08:12:18;1.45;;;1.20;;
83690;SDS011;73671;43.220;0.064;2023-12-22T08:14:44;2.42;;;2.13;;
83690;SDS011;73671;43.220;0.064;2023-12-22T08:17:09;5.00;;;1.50;;
83690;SDS011;73671;43.220;0.064;2023-12-22T08:19:36;3.10;;;1.33;;
83690;SDS011;73671;43.220;0.064;2023-12-22T08:22:01;3.92;;;1.63;;
83690;SDS011;73671;43.220;0.064;2023-12-22T08:24:27;2.03;;;1.23;;
83690;SDS011;73671;43.220;0.064;2023-12-22T08:26:52;1.10;;;1.10;;
83690;SDS011;73671;43.220;0.064;2023-12-22T08:29:18;2.50;;;1.10;;
83690;SDS011;73671;43.220;0.064;2023-12-22T08:31:46;2.00;;;1.20;;
83690;SDS011;73671;43.220;0.064;2023-12-22T08:34:11;1.23;;;1.13;;
83690;SDS011;73671;43.220;0.064;2023-12-22T08:36:37;2.30;;;1.40;;
83690;SDS011;73671;43.220;0.064;2023-12-22T08:39:02;2.17;;;1.20;;
83690;SDS011;73671;43.220;0.064;2023-12-22T08:41:30;2.70;;;1.58;;
83690;SDS011;73671;43.220;0.064;2023-12-22T08:44:01;1.60;;;1.20;;
83690;SDS011;73671;43.220;0.064;2023-12-22T08:46:27;4.70;;;1.60;;
83690;SDS011;73671;43.220;0.064;2023-12-22T08:48:52;2.25;;;0.93;;
83690;SDS011;73671;43.220;0.064;2023-12-22T08:51:18;1.45;;;1.35;;
83690;SDS011;73671;43.220;0.064;2023-12-22T08:53:43;1.70;;;1.00;;
83690;SDS011;73671;43.220;0.064;2023-12-22T08:56:08;1.55;;;1.10;;
83690;SDS011;73671;43.220;0.064;2023-12-22T08:58:34;1.30;;;1.20;;
83690;SDS011;73671;43.220;0.064;2023-12-22T09:01:00;1.42;;;0.98;;
83690;SDS011;73671;43.220;0.064;2023-12-22T09:03:25;1.67;;;0.90;;
83690;SDS011;73671;43.220;0.064;2023-12-22T09:05:52;1.25;;;1.10;;
83690;SDS011;73671;43.220;0.064;2023-12-22T09:08:17;1.20;;;1.10;;
83690;SDS011;73671;43.220;0.064;2023-12-22T09:10:43;1.02;;;1.00;;
83690;SDS011;73671;43.220;0.064;2023-12-22T09:13:08;2.05;;;1.05;;
83690;SDS011;73671;43.220;0.064;2023-12-22T09:15:33;3.35;;;1.30;;
83690;SDS011;73671;43.220;0.064;2023-12-22T09:17:59;2.17;;;1.17;;
83690;SDS011;73671;43.220;0.064;2023-12-22T09:20:25;1.45;;;1.27;;
83690;SDS011;73671;43.220;0.064;2023-12-22T09:22:51;2.75;;;1.30;;
83690;SDS011;73671;43.220;0.064;2023-12-22T09:25:16;2.22;;;1.10;;
83690;SDS011;73671;43.220;0.064;2023-12-22T09:27:41;3.35;;;1.10;;
83690;SDS011;73671;43.220;0.064;2023-12-22T09:30:07;1.85;;;1.25;;
83690;SDS011;73671;43.220;0.064;2023-12-22T09:32:33;1.60;;;0.90;;
83690;SDS011;73671;43.220;0.064;2023-12-22T09:34:58;2.83;;;1.10;;
83690;SDS011;73671;43.220;0.064;2023-12-22T09:37:25;1.08;;;0.93;;
83690;SDS011;73671;43.220;0.064;2023-12-22T09:39:51;3.15;;;1.00;;
83690;SDS011;73671;43.220;0.064;2023-12-22T09:42:16;0.93;;;0.90;;
83690;SDS011;73671;43.220;0.064;2023-12-22T09:44:42;0.95;;;0.82;;
83690;SDS011;73671;43.220;0.064;2023-12-22T09:47:08;4.13;;;1.90;;
83690;SDS011;73671;43.220;0.064;2023-12-22T09:49:37;3.33;;;1.00;;
83690;SDS011;73671;43.220;0.064;2023-12-22T09:52:03;2.70;;;1.30;;
83690;SDS011;73671;43.220;0.064;2023-12-22T09:54:31;1.40;;;1.00;;
83690;SDS011;73671;43.220;0.064;2023-12-22T09:56:57;1.40;;;1.10;;
83690;SDS011;73671;43.220;0.064;2023-12-22T09:59:24;2.28;;;0.95;;
83690;SDS011;73671;43.220;0.064;2023-12-22T10:01:52;4.35;;;1.10;;
83690;SDS011;73671;43.220;0.064;2023-12-22T10:04:19;1.00;;;1.00;;
83690;SDS011;73671;43.220;0.064;2023-12-22T10:06:46;1.05;;;0.90;;
83690;SDS011;73671;43.220;0.064;2023-12-22T10:09:13;0.90;;;0.90;;
83690;SDS011;73671;43.220;0.064;2023-12-22T10:11:41;0.90;;;0.90;;
83690;SDS011;73671;43.220;0.064;2023-12-22T10:14:08;0.90;;;0.90;;
83690;SDS011;73671;43.220;0.064;2023-12-22T10:16:35;1.02;;;0.88;;
83690;SDS011;73671;43.220;0.064;2023-12-22T10:19:01;0.80;;;0.80;;
83690;SDS011;73671;43.220;0.064;2023-12-22T10:21:28;1.15;;;0.90;;
83690;SDS011;73671;43.220;0.064;2023-12-22T10:23:55;1.00;;;1.00;;
83690;SDS011;73671;43.220;0.064;2023-12-22T10:26:21;1.20;;;1.10;;
83690;SDS011;73671;43.220;0.064;2023-12-22T10:28:47;0.90;;;0.90;;
83690;SDS011;73671;43.220;0.064;2023-12-22T10:31:13;1.40;;;1.00;;
83690;SDS011;73671;43.220;0.064;2023-12-22T10:33:39;1.15;;;1.05;;
83690;SDS011;73671;43.220;0.064;2023-12-22T10:36:05;1.30;;;1.00;;
83690;SDS011;73671;43.220;0.064;2023-12-22T10:38:32;1.48;;;1.35;;
83690;SDS011;73671;43.220;0.064;2023-12-22T10:41:03;1.10;;;1.00;;
83690;SDS011;73671;43.220;0.064;2023-12-22T10:43:31;0.90;;;0.90;;
83690;SDS011;73671;43.220;0.064;2023-12-22T10:46:02;1.58;;;1.00;;
83690;SDS011;73671;43.220;0.064;2023-12-22T10:48:28;1.42;;;1.20;;
83690;SDS011;73671;43.220;0.064;2023-12-22T10:50:54;1.27;;;0.90;;
83690;SDS011;73671;43.220;0.064;2023-12-22T10:53:20;0.98;;;0.98;;
83690;SDS011;73671;43.220;0.064;2023-12-22T10:55:46;1.52;;;1.42;;
83690;SDS011;73671;43.220;0.064;2023-12-22T10:58:16;2.30;;;1.83;;
83690;SDS011;73671;43.220;0.064;2023-12-22T11:00:41;3.42;;;2.38;;
83690;SDS011;73671;43.220;0.064;2023-12-22T11:03:10;8.05;;;4.43;;
83690;SDS011;73671;43.220;0.064;2023-12-22T11:05:42;5.57;;;2.47;;
83690;SDS011;73671;43.220;0.064;2023-12-22T11:08:11;6.38;;;3.88;;
83690;SDS011;73671;43.220;0.064;2023-12-22T11:10:37;3.75;;;2.25;;
83690;SDS011;73671;43.220;0.064;2023-12-22T11:13:07;1.92;;;1.40;;
83690;SDS011;73671;43.220;0.064;2023-12-22T11:15:34;3.45;;;2.42;;
83690;SDS011;73671;43.220;0.064;2023-12-22T11:18:01;4.63;;;2.60;;
83690;SDS011;73671;43.220;0.064;2023-12-22T11:20:27;2.38;;;1.70;;
83690;SDS011;73671;43.220;0.064;2023-12-22T11:22:57;1.40;;;1.30;;
83690;SDS011;73671;43.220;0.064;2023-12-22T11:25:24;5.05;;;1.40;;
83690;SDS011;73671;43.220;0.064;2023-12-22T11:27:52;4.60;;;2.55;;
83690;SDS011;73671;43.220;0.064;2023-12-22T11:30:18;3.97;;;2.53;;
83690;SDS011;73671;43.220;0.064;2023-12-22T11:32:46;1.92;;;1.55;;
83690;SDS011;73671;43.220;0.064;2023-12-22T11:35:14;9.75;;;4.15;;
83690;SDS011;73671;43.220;0.064;2023-12-22T11:37:42;7.50;;;3.50;;
83690;SDS011;73671;43.220;0.064;2023-12-22T11:40:07;6.00;;;2.80;;
83690;SDS011;73671;43.220;0.064;2023-12-22T11:42:43;1.63;;;1.23;;
83690;SDS011;73671;43.220;0.064;2023-12-22T11:45:12;10.30;;;4.30;;
83690;SDS011;73671;43.220;0.064;2023-12-22T11:47:45;16.65;;;5.82;;
83690;SDS011;73671;43.220;0.064;2023-12-22T11:50:11;19.13;;;6.55;;
83690;SDS011;73671;43.220;0.064;2023-12-22T11:52:37;2.97;;;1.77;;
83690;SDS011;73671;43.220;0.064;2023-12-22T11:55:04;9.05;;;3.58;;
83690;SDS011;73671;43.220;0.064;2023-12-22T11:57:30;3.50;;;2.55;;
83690;SDS011;73671;43.220;0.064;2023-12-22T12:02:34;1.23;;;1.13;;
83690;SDS011;73671;43.220;0.064;2023-12-22T12:05:01;1.98;;;1.75;;
83690;SDS011;73671;43.220;0.064;2023-12-22T12:10:02;1.58;;;1.00;;
83690;SDS011;73671;43.220;0.064;2023-12-22T12:12:27;5.07;;;2.90;;
83690;SDS011;73671;43.220;0.064;2023-12-22T12:14:54;1.17;;;1.08;;
83690;SDS011;73671;43.220;0.064;2023-12-22T12:17:23;4.07;;;2.47;;
83690;SDS011;73671;43.220;0.064;2023-12-22T12:19:48;10.38;;;4.70;;
83690;SDS011;73671;43.220;0.064;2023-12-22T12:22:16;9.93;;;4.05;;
83690;SDS011;73671;43.220;0.064;2023-12-22T12:24:42;3.65;;;1.58;;
83690;SDS011;73671;43.220;0.064;2023-12-22T12:27:07;6.03;;;2.95;;
83690;SDS011;73671;43.220;0.064;2023-12-22T12:29:33;18.10;;;6.97;;
83690;SDS011;73671;43.220;0.064;2023-12-22T12:32:02;5.05;;;2.10;;
83690;SDS011;73671;43.220;0.064;2023-12-22T12:34:31;6.55;;;3.08;;
83690;SDS011;73671;43.220;0.064;2023-12-22T12:36:57;5.13;;;2.67;;
83690;SDS011;73671;43.220;0.064;2023-12-22T12:39:23;2.95;;;2.13;;
83690;SDS011;73671;43.220;0.064;2023-12-22T12:41:54;3.40;;;1.90;;
83690;SDS011;73671;43.220;0.064;2023-12-22T12:44:21;1.52;;;1.17;;
83690;SDS011;73671;43.220;0.064;2023-12-22T12:46:47;2.90;;;1.00;;
83690;SDS011;73671;43.220;0.064;2023-12-22T12:49:13;1.00;;;1.00;;
83690;SDS011;73671;43.220;0.064;2023-12-22T12:51:42;1.05;;;0.70;;
83690;SDS011;73671;43.220;0.064;2023-12-22T12:54:09;3.97;;;1.13;;
83690;SDS011;73671;43.220;0.064;2023-12-22T12:56:43;2.85;;;1.20;;
83690;SDS011;73671;43.220;0.064;2023-12-22T12:59:13;1.38;;;1.20;;
83690;SDS011;73671;43.220;0.064;2023-12-22T13:01:43;3.17;;;1.73;;
83690;SDS011;73671;43.220;0.064;2023-12-22T13:04:13;2.45;;;1.80;;
83690;SDS011;73671;43.220;0.064;2023-12-22T13:06:45;3.95;;;2.50;;
83690;SDS011;73671;43.220;0.064;2023-12-22T13:09:15;3.22;;;2.33;;
83690;SDS011;73671;43.220;0.064;2023-12-22T13:11:41;2.22;;;1.75;;
83690;SDS011;73671;43.220;0.064;2023-12-22T13:14:08;1.38;;;1.27;;
83690;SDS011;73671;43.220;0.064;2023-12-22T13:16:34;3.65;;;1.73;;
83690;SDS011;73671;43.220;0.064;2023-12-22T13:19:00;3.22;;;2.10;;
83690;SDS011;73671;43.220;0.064;2023-12-22T13:21:26;1.75;;;1.55;;
83690;SDS011;73671;43.220;0.064;2023-12-22T13:24:26;0.80;;;0.80;;
83690;SDS011;73671;43.220;0.064;2023-12-22T13:26:45;2.13;;;1.90;;
83690;SDS011;73671;43.220;0.064;2023-12-22T13:29:12;2.55;;;2.13;;
83690;SDS011;73671;43.220;0.064;2023-12-22T13:31:41;2.95;;;2.15;;
83690;SDS011;73671;43.220;0.064;2023-12-22T13:34:08;1.30;;;1.20;;
83690;SDS011;73671;43.220;0.064;2023-12-22T13:36:37;3.03;;;1.40;;
83690;SDS011;73671;43.220;0.064;2023-12-22T13:39:03;1.60;;;1.50;;
83690;SDS011;73671;43.220;0.064;2023-12-22T13:41:34;1.85;;;1.63;;
83690;SDS011;73671;43.220;0.064;2023-12-22T13:44:07;1.55;;;1.45;;
83690;SDS011;73671;43.220;0.064;2023-12-22T13:46:33;1.23;;;1.10;;
83690;SDS011;73671;43.220;0.064;2023-12-22T13:49:02;3.28;;;1.20;;
83690;SDS011;73671;43.220;0.064;2023-12-22T13:51:44;1.70;;;1.17;;
83690;SDS011;73671;43.220;0.064;2023-12-22T13:54:12;4.15;;;1.33;;
83690;SDS011;73671;43.220;0.064;2023-12-22T13:56:38;3.25;;;1.80;;
83690;SDS011;73671;43.220;0.064;2023-12-22T13:59:09;1.23;;;1.13;;
83690;SDS011;73671;43.220;0.064;2023-12-22T14:01:35;2.67;;;1.67;;
83690;SDS011;73671;43.220;0.064;2023-12-22T14:04:01;0.95;;;0.95;;
83690;SDS011;73671;43.220;0.064;2023-12-22T14:06:27;2.30;;;1.30;;
83690;SDS011;73671;43.220;0.064;2023-12-22T14:08:54;1.10;;;1.00;;
83690;SDS011;73671;43.220;0.064;2023-12-22T14:11:20;0.98;;;0.80;;
83690;SDS011;73671;43.220;0.064;2023-12-22T14:13:46;1.38;;;0.80;;
83690;SDS011;73671;43.220;0.064;2023-12-22T14:16:11;1.65;;;1.15;;
83690;SDS011;73671;43.220;0.064;2023-12-22T14:18:36;1.50;;;0.90;;
83690;SDS011;73671;43.220;0.064;2023-12-22T14:21:02;0.85;;;0.77;;
83690;SDS011;73671;43.220;0.064;2023-12-22T14:23:30;3.28;;;1.00;;
83690;SDS011;73671;43.220;0.064;2023-12-22T14:25:55;2.55;;;1.10;;
83690;SDS011;73671;43.220;0.064;2023-12-22T14:28:21;0.85;;;0.80;;
83690;SDS011;73671;43.220;0.064;2023-12-22T14:30:46;2.53;;;1.00;;
83690;SDS011;73671;43.220;0.064;2023-12-22T14:33:11;1.55;;;1.00;;
83690;SDS011;73671;43.220;0.064;2023-12-22T14:35:37;3.00;;;1.17;;
83690;SDS011;73671;43.220;0.064;2023-12-22T14:38:02;4.55;;;1.27;;
83690;SDS011;73671;43.220;0.064;2023-12-22T14:40:28;1.50;;;1.20;;
83690;SDS011;73671;43.220;0.064;2023-12-22T14:42:54;2.00;;;1.60;;
83690;SDS011;73671;43.220;0.064;2023-12-22T14:45:19;1.90;;;1.42;;
83690;SDS011;73671;43.220;0.064;2023-12-22T14:47:45;4.72;;;1.17;;
83690;SDS011;73671;43.220;0.064;2023-12-22T14:50:11;1.38;;;1.27;;
83690;SDS011;73671;43.220;0.064;2023-12-22T14:52:36;2.03;;;1.48;;